Time;durP1;ratioP1;P1;durP2;ratioP2;P2;SDS_P1;SDS_P2;PMS_P1;PMS_P2;Temp;Humidity;BMP_temperature;BMP_pressure;BME280_temperature;BME280_humidity;BME280_pressure;Samples;Min_cycle;Max_cycle;Signal;HPM_P1;HPM_P2
2022/09/29 00:01:47;;;;;;;2.92;2.58;;;;;;;4.24;56.43;99965.25;5009430;28;20033;-67
2022/09/29 00:04:12;;;;;;;2.60;2.17;;;;;;;4.17;56.33;99957.66;5014951;28;21538;-67
2022/09/29 00:06:37;;;;;;;5.07;2.20;;;;;;;4.12;56.48;99959.53;4995154;28;20075;-68
2022/09/29 00:09:03;;;;;;;3.17;2.45;;;;;;;4.05;56.55;99962.31;5013122;28;20135;-67
2022/09/29 00:11:28;;;;;;;3.00;2.75;;;;;;;3.97;56.87;99960.78;5013211;28;20091;-67
2022/09/29 00:13:54;;;;;;;3.45;2.72;;;;;;;3.97;57.08;99963.38;5013032;28;20092;-69
2022/09/29 00:16:19;;;;;;;2.65;1.75;;;;;;;4.05;56.74;99960.59;5011484;28;20528;-68
2022/09/29 00:18:48;;;;;;;4.28;2.47;;;;;;;4.17;56.40;99962.00;5010448;28;20037;-67
2022/09/29 00:21:18;;;;;;;2.25;1.65;;;;;;;4.12;56.00;99961.25;5015066;28;20139;-68
2022/09/29 00:23:44;;;;;;;2.67;2.13;;;;;;;4.15;56.39;99948.25;5011096;28;20034;-68
2022/09/29 00:26:19;;;;;;;2.55;2.35;;;;;;;4.07;56.51;99952.78;5011891;28;20037;-68
2022/09/29 00:28:51;;;;;;;3.25;2.28;;;;;;;4.04;56.03;99945.13;5009580;28;20030;-67
2022/09/29 00:31:17;;;;;;;3.35;2.08;;;;;;;3.92;56.38;99949.72;5010220;28;20038;-68
2022/09/29 00:33:43;;;;;;;2.90;2.60;;;;;;;3.94;56.35;99947.97;5011619;28;20041;-67
2022/09/29 00:36:14;;;;;;;4.57;3.03;;;;;;;3.88;56.28;99950.69;5010861;28;20147;-67
2022/09/29 00:38:41;;;;;;;2.90;2.20;;;;;;;3.96;56.32;99951.34;5010491;28;20073;-67
2022/09/29 00:41:07;;;;;;;2.92;2.10;;;;;;;3.94;56.45;99940.19;5029572;28;20554;-74
2022/09/29 00:43:53;;;;;;;4.10;2.55;;;;;;;3.92;56.44;99947.16;5012576;28;20574;-71
2022/09/29 00:46:32;;;;;;;2.65;1.63;;;;;;;3.87;56.39;99949.00;5012081;28;20063;-71
2022/09/29 00:49:10;;;;;;;4.07;3.28;;;;;;;3.73;56.86;99941.59;5008684;28;20045;-71
2022/09/29 00:51:39;;;;;;;2.70;1.80;;;;;;;3.75;56.50;99949.34;5017682;28;20725;-71
2022/09/29 00:54:06;;;;;;;2.90;2.47;;;;;;;3.68;56.96;99948.66;4989370;28;20073;-72
2022/09/29 00:56:35;;;;;;;2.95;2.38;;;;;;;3.67;56.82;99946.09;5016548;28;20040;-72
2022/09/29 00:59:07;;;;;;;3.10;2.78;;;;;;;3.70;56.66;99951.19;5009154;28;20572;-72
2022/09/29 01:01:33;;;;;;;3.08;2.33;;;;;;;3.69;56.60;99955.50;5019310;28;20390;-72
2022/09/29 01:04:07;;;;;;;3.60;2.35;;;;;;;3.79;56.59;99950.94;5009748;28;20048;-72
2022/09/29 01:06:40;;;;;;;3.65;2.63;;;;;;;3.78;56.19;99946.66;5011976;28;20044;-66
2022/09/29 01:09:14;;;;;;;3.47;2.40;;;;;;;3.79;56.74;99961.28;5005182;28;20029;-67
2022/09/29 01:11:41;;;;;;;6.88;2.63;;;;;;;3.78;56.44;99959.56;5009863;28;20095;-67
2022/09/29 01:14:09;;;;;;;4.18;3.00;;;;;;;3.75;56.74;99957.09;5008470;28;20050;-67
2022/09/29 01:16:36;;;;;;;4.72;3.35;;;;;;;3.79;57.10;99964.72;5010668;28;20038;-68
2022/09/29 01:19:28;;;;;;;4.20;2.60;;;;;;;3.89;57.16;99954.13;5008174;28;20933;-66
2022/09/29 01:22:15;;;;;;;4.78;3.50;;;;;;;3.92;57.00;99957.50;5007540;28;20036;-67
2022/09/29 01:25:18;;;;;;;4.95;3.42;;;;;;;3.79;57.21;99966.47;5013682;28;20034;-66
2022/09/29 01:27:59;;;;;;;3.20;2.58;;;;;;;3.78;57.44;99960.44;5009128;28;20477;-69
2022/09/29 01:31:03;;;;;;;4.18;3.05;;;;;;;3.71;57.28;99963.22;5008467;28;20026;-67
2022/09/29 01:33:33;;;;;;;4.63;3.03;;;;;;;3.60;57.22;99955.75;5009530;28;20072;-67
2022/09/29 01:36:11;;;;;;;3.15;2.25;;;;;;;3.56;56.88;99957.56;5030625;28;20046;-65
2022/09/29 01:38:45;;;;;;;3.95;2.92;;;;;;;3.65;56.83;99958.19;5008317;28;20095;-66
2022/09/29 01:41:13;;;;;;;3.22;2.40;;;;;;;3.63;56.69;99959.97;5009640;28;20111;-65
2022/09/29 01:43:45;;;;;;;3.60;2.50;;;;;;;3.56;56.47;99959.28;5007352;28;20041;-67
2022/09/29 01:46:48;;;;;;;3.33;2.30;;;;;;;3.52;56.68;99957.69;5008296;28;20481;-67
2022/09/29 01:49:16;;;;;;;4.30;3.08;;;;;;;3.45;56.65;99957.00;5006926;28;20819;-67
2022/09/29 01:51:56;;;;;;;4.28;3.08;;;;;;;3.36;57.01;99957.22;5010000;28;20033;-67
2022/09/29 01:54:35;;;;;;;2.85;2.38;;;;;;;3.29;56.95;99960.81;5013759;28;20057;-66
2022/09/29 01:57:11;;;;;;;2.92;2.63;;;;;;;3.23;56.94;99959.22;4990848;28;20041;-67
2022/09/29 01:59:48;;;;;;;3.97;3.00;;;;;;;3.19;57.11;99960.19;5016216;28;20167;-67
2022/09/29 02:02:26;;;;;;;3.30;2.40;;;;;;;3.24;57.35;99960.91;5007228;28;20805;-66
2022/09/29 02:04:55;;;;;;;3.50;2.60;;;;;;;3.38;57.27;99956.28;5012102;28;20036;-67
2022/09/29 02:07:30;;;;;;;4.35;3.28;;;;;;;3.45;56.82;99954.41;5009953;28;20034;-66
2022/09/29 02:10:04;;;;;;;4.90;3.08;;;;;;;3.37;56.88;99958.91;5009649;28;20034;-69
2022/09/29 02:12:33;;;;;;;4.55;3.22;;;;;;;3.32;56.90;99960.78;5024944;28;20053;-68
2022/09/29 02:15:02;;;;;;;5.18;3.50;;;;;;;3.42;56.87;99957.06;5028678;28;20042;-69
2022/09/29 02:17:34;;;;;;;3.38;2.95;;;;;;;3.41;56.73;99957.94;5010275;28;20042;-68
2022/09/29 02:20:01;;;;;;;5.65;3.00;;;;;;;3.26;56.84;99955.72;5005720;28;20033;-68
2022/09/29 02:22:27;;;;;;;4.50;2.65;;;;;;;3.21;57.35;99957.56;5007803;28;20565;-68
2022/09/29 02:24:57;;;;;;;3.90;2.92;;;;;;;3.13;57.07;99953.41;5006997;28;20065;-68
2022/09/29 02:27:22;;;;;;;2.97;2.67;;;;;;;3.22;57.15;99954.09;4995461;28;20037;-65
2022/09/29 02:29:48;;;;;;;5.03;2.58;;;;;;;3.16;57.10;99949.94;5009001;28;20029;-66
2022/09/29 02:32:14;;;;;;;3.03;2.47;;;;;;;3.13;57.23;99949.97;5006395;28;20047;-65
2022/09/29 02:34:44;;;;;;;3.05;2.20;;;;;;;3.19;57.02;99953.28;5008057;28;20496;-70
2022/09/29 02:37:19;;;;;;;4.32;2.97;;;;;;;3.28;56.56;99951.34;5011446;28;20057;-71
2022/09/29 02:40:14;;;;;;;10.82;3.70;;;;;;;3.15;56.66;99953.38;5009551;28;20040;-71
2022/09/29 02:43:01;;;;;;;10.63;3.40;;;;;;;3.08;57.08;99963.00;5013304;28;20140;-72
2022/09/29 02:45:48;;;;;;;3.35;2.92;;;;;;;3.00;57.14;99967.50;5025135;28;20064;-71
2022/09/29 02:48:38;;;;;;;3.88;2.42;;;;;;;3.00;57.14;99959.75;5007802;28;22465;-67
2022/09/29 02:51:22;;;;;;;3.35;2.38;;;;;;;2.97;56.99;99967.56;5012442;28;20090;-67
2022/09/29 02:54:06;;;;;;;3.45;2.95;;;;;;;2.86;57.18;99964.38;5006582;28;20065;-66
2022/09/29 02:56:34;;;;;;;4.72;2.35;;;;;;;2.89;57.34;99961.72;5010090;28;20033;-66
2022/09/29 02:59:10;;;;;;;3.08;2.78;;;;;;;2.88;57.91;99962.63;5009950;28;20114;-66
2022/09/29 03:01:47;;;;;;;3.50;3.05;;;;;;;3.01;57.42;99965.78;5009105;28;20036;-67
2022/09/29 03:04:13;;;;;;;8.35;2.90;;;;;;;3.00;57.65;99958.91;5004537;28;20605;-67
2022/09/29 03:06:38;;;;;;;2.55;2.33;;;;;;;3.01;57.38;99961.47;5014582;28;20049;-67
2022/09/29 03:09:04;;;;;;;3.70;2.70;;;;;;;2.96;57.60;99965.88;5006976;28;20045;-67
2022/09/29 03:11:29;;;;;;;3.75;2.47;;;;;;;2.94;57.49;99970.22;5013268;28;20659;-67
2022/09/29 03:13:55;;;;;;;3.88;2.65;;;;;;;2.90;57.51;99966.00;5005436;28;20033;-64
2022/09/29 03:16:20;;;;;;;3.95;2.60;;;;;;;2.86;57.34;99972.13;5008943;28;20144;-66
2022/09/29 03:18:46;;;;;;;3.72;2.97;;;;;;;2.86;57.31;99966.97;5030461;28;20460;-69
2022/09/29 03:21:11;;;;;;;2.97;2.72;;;;;;;2.82;57.46;99968.75;5009064;28;20406;-70
2022/09/29 03:23:36;;;;;;;12.38;2.97;;;;;;;2.80;57.58;99965.38;5007704;28;20073;-69
2022/09/29 03:26:02;;;;;;;4.75;2.92;;;;;;;2.81;57.50;99964.50;5006731;28;20106;-69
2022/09/29 03:28:27;;;;;;;3.92;2.17;;;;;;;2.91;57.54;99970.28;5006455;28;20054;-69
2022/09/29 03:30:54;;;;;;;3.20;2.90;;;;;;;2.93;57.44;99973.69;5005789;28;20116;-70
2022/09/29 03:33:20;;;;;;;3.75;3.15;;;;;;;3.07;57.39;99973.34;5012413;28;20096;-68
2022/09/29 03:35:45;;;;;;;3.55;2.38;;;;;;;3.13;57.10;99970.63;5015498;28;20032;-68
2022/09/29 03:38:11;;;;;;;4.53;3.00;;;;;;;3.13;56.89;99971.47;5009523;28;20037;-68
2022/09/29 03:40:36;;;;;;;3.45;2.45;;;;;;;3.11;57.46;99970.69;5012141;28;20036;-68
2022/09/29 03:43:02;;;;;;;7.25;3.00;;;;;;;3.10;57.33;99975.88;5006667;28;20437;-68
2022/09/29 03:45:27;;;;;;;3.47;3.17;;;;;;;2.94;58.05;99975.41;5012054;28;20059;-68
2022/09/29 03:47:53;;;;;;;3.70;3.03;;;;;;;3.11;57.80;99973.28;5010328;28;20437;-68
2022/09/29 03:50:18;;;;;;;18.63;3.97;;;;;;;3.05;57.67;99983.75;5009446;28;20860;-68
2022/09/29 03:52:43;;;;;;;12.27;3.83;;;;;;;2.97;57.86;99983.91;5012057;28;20034;-68
2022/09/29 03:55:09;;;;;;;42.08;5.07;;;;;;;2.98;58.07;99987.34;5010791;28;20048;-66
2022/09/29 03:57:34;;;;;;;21.42;3.55;;;;;;;2.90;57.62;99984.94;5013638;28;20045;-66
2022/09/29 04:00:00;;;;;;;11.30;3.40;;;;;;;3.01;57.36;99984.69;5010616;28;20037;-66
2022/09/29 04:02:25;;;;;;;3.15;2.80;;;;;;;3.07;57.71;99979.41;5015674;28;20029;-66
2022/09/29 04:04:51;;;;;;;65.88;4.30;;;;;;;2.94;56.85;99980.56;5012672;28;20029;-66
2022/09/29 04:07:16;;;;;;;3.67;3.28;;;;;;;2.87;57.77;99979.00;5010059;28;20535;-66
2022/09/29 04:09:42;;;;;;;16.73;3.45;;;;;;;2.50;58.77;99969.47;5008878;28;20033;-67
2022/09/29 04:12:07;;;;;;;11.38;3.00;;;;;;;2.72;58.27;99978.44;5009319;28;20065;-66
2022/09/29 04:14:33;;;;;;;2.78;2.58;;;;;;;2.73;58.05;99977.56;5012629;28;20108;-66
2022/09/29 04:16:58;;;;;;;2.65;2.35;;;;;;;2.86;57.65;99982.44;5015365;28;20121;-66
2022/09/29 04:19:23;;;;;;;10.15;3.70;;;;;;;2.56;57.98;99979.66;5012416;28;20022;-76
2022/09/29 04:21:49;;;;;;;18.75;3.63;;;;;;;2.60;58.02;99980.44;5015621;28;20214;-74
2022/09/29 04:24:14;;;;;;;10.57;3.88;;;;;;;2.81;57.78;99982.56;5011601;28;20048;-73
2022/09/29 04:26:40;;;;;;;3.70;3.40;;;;;;;2.70;57.77;99985.38;5012407;28;20067;-73
2022/09/29 04:29:06;;;;;;;3.17;2.92;;;;;;;2.80;57.72;99996.34;5017517;28;20053;-72
2022/09/29 04:31:32;;;;;;;3.15;2.85;;;;;;;2.86;57.78;99997.94;5016737;28;20052;-72
2022/09/29 04:33:57;;;;;;;4.97;3.28;;;;;;;2.54;57.83;99999.47;5032638;28;20046;-73
2022/09/29 04:36:23;;;;;;;28.58;3.45;;;;;;;2.69;57.47;99995.72;5012983;28;20030;-72
2022/09/29 04:38:50;;;;;;;8.20;3.20;;;;;;;2.55;57.90;99996.88;5032443;28;20049;-68
2022/09/29 04:41:16;;;;;;;14.15;3.75;;;;;;;2.65;57.52;99994.09;5009058;28;20029;-69
2022/09/29 04:43:42;;;;;;;6.55;2.92;;;;;;;2.78;57.50;99998.13;5008869;28;20614;-69
2022/09/29 04:46:07;;;;;;;4.18;2.90;;;;;;;2.76;57.51;99998.13;5011032;28;20322;-72
2022/09/29 04:48:34;;;;;;;3.60;3.30;;;;;;;2.77;57.30;99994.66;5011499;28;20128;-71
2022/09/29 04:51:00;;;;;;;6.03;3.55;;;;;;;2.53;57.41;100002.91;5028962;28;20042;-73
2022/09/29 04:53:25;;;;;;;3.33;2.92;;;;;;;2.49;57.68;100002.16;5012490;28;20056;-73
2022/09/29 04:55:51;;;;;;;3.65;3.35;;;;;;;2.56;57.69;100006.31;5010702;28;20367;-74
2022/09/29 04:58:16;;;;;;;3.83;3.53;;;;;;;2.72;57.36;100016.31;5009693;28;20038;-73
2022/09/29 05:00:42;;;;;;;7.72;4.25;;;;;;;2.65;56.87;100015.59;5012698;28;20628;-73
2022/09/29 05:03:07;;;;;;;16.30;4.95;;;;;;;2.69;57.03;100022.38;5010007;28;20049;-70
2022/09/29 05:05:33;;;;;;;5.38;4.50;;;;;;;2.73;57.14;100020.56;5010999;28;20069;-71
2022/09/29 05:07:58;;;;;;;20.90;4.85;;;;;;;2.48;57.29;100027.97;4999301;28;20805;-72
2022/09/29 05:10:25;;;;;;;5.85;4.53;;;;;;;2.66;57.14;100027.59;5009823;28;20116;-72
2022/09/29 05:12:50;;;;;;;4.93;3.10;;;;;;;2.52;57.09;100030.47;5026914;28;20770;-68
2022/09/29 05:15:20;;;;;;;3.70;3.40;;;;;;;2.57;56.96;100028.63;5008914;28;20037;-71
2022/09/29 05:17:45;;;;;;;9.77;3.55;;;;;;;2.64;56.95;100029.34;5012640;28;20064;-71
2022/09/29 05:20:11;;;;;;;4.22;3.17;;;;;;;2.59;56.76;100030.34;5008153;28;20037;-71
2022/09/29 05:22:38;;;;;;;2.90;2.58;;;;;;;2.65;57.18;100036.22;4998907;28;20506;-71
2022/09/29 05:25:04;;;;;;;13.45;3.10;;;;;;;2.80;57.12;100044.50;5011193;28;20121;-71
2022/09/29 05:27:30;;;;;;;14.10;3.90;;;;;;;2.74;56.58;100037.78;5012886;28;20053;-70
2022/09/29 05:29:55;;;;;;;4.07;3.70;;;;;;;2.63;57.27;100043.16;5007776;28;20049;-69
2022/09/29 05:32:21;;;;;;;2.88;2.63;;;;;;;2.67;56.89;100044.78;5005825;28;20046;-70
2022/09/29 05:34:46;;;;;;;9.60;3.83;;;;;;;2.71;56.64;100046.44;5000151;28;20045;-71
2022/09/29 05:37:12;;;;;;;4.28;2.63;;;;;;;2.82;56.91;100047.91;4993342;28;20049;-69
2022/09/29 05:39:38;;;;;;;2.72;2.47;;;;;;;2.81;57.00;100039.34;5014467;28;20465;-69
2022/09/29 05:42:05;;;;;;;3.55;3.25;;;;;;;2.94;57.11;100039.94;5010791;28;20061;-68
2022/09/29 05:44:32;;;;;;;3.38;3.10;;;;;;;2.93;56.64;100030.47;5029621;28;20230;-69
2022/09/29 05:46:58;;;;;;;3.47;3.17;;;;;;;2.83;56.88;100035.00;5011514;28;20538;-69
2022/09/29 05:49:23;;;;;;;3.65;3.05;;;;;;;2.94;56.71;100032.19;5008119;28;20076;-71
2022/09/29 05:51:49;;;;;;;3.05;2.75;;;;;;;3.08;56.71;100034.47;5008621;28;20216;-70
2022/09/29 05:54:15;;;;;;;3.50;2.75;;;;;;;3.16;56.91;100041.16;5006729;28;20393;-72
2022/09/29 05:56:40;;;;;;;3.38;3.08;;;;;;;3.26;56.70;100046.09;5010294;28;20033;-72
2022/09/29 05:59:06;;;;;;;14.93;3.05;;;;;;;3.16;56.39;100043.72;5008950;28;20061;-71
2022/09/29 06:01:32;;;;;;;3.28;2.97;;;;;;;3.18;56.83;100046.28;5012646;28;20056;-70
2022/09/29 06:03:57;;;;;;;2.97;2.50;;;;;;;3.31;57.01;100042.53;5005786;28;20066;-69
2022/09/29 06:06:25;;;;;;;3.20;2.80;;;;;;;3.44;56.55;100042.28;5009475;28;20060;-72
2022/09/29 06:08:52;;;;;;;3.42;2.80;;;;;;;3.58;56.58;100040.19;5010907;28;20040;-68
2022/09/29 06:11:23;;;;;;;9.32;3.40;;;;;;;3.63;56.71;100034.91;5010492;28;20100;-69
2022/09/29 06:13:51;;;;;;;11.43;3.35;;;;;;;3.33;56.64;100050.28;5013755;28;20128;-66
2022/09/29 06:16:19;;;;;;;11.27;2.85;;;;;;;3.45;56.34;100055.16;5008654;28;20091;-66
2022/09/29 06:18:45;;;;;;;3.25;2.85;;;;;;;3.54;56.41;100049.78;5007943;28;20042;-66
2022/09/29 06:21:14;;;;;;;9.38;2.63;;;;;;;3.58;56.13;100054.00;5022757;28;20045;-65
2022/09/29 06:23:39;;;;;;;8.93;2.65;;;;;;;3.79;55.95;100049.19;5020704;28;20045;-66
2022/09/29 06:26:08;;;;;;;12.70;2.67;;;;;;;3.77;55.87;100051.78;5005424;28;20036;-65
2022/09/29 06:28:33;;;;;;;9.05;3.63;;;;;;;3.78;56.02;100061.25;5009074;28;20120;-65
2022/09/29 06:31:04;;;;;;;4.10;2.65;;;;;;;3.33;56.67;100064.03;5010899;28;20034;-65
2022/09/29 06:33:31;;;;;;;7.07;2.88;;;;;;;3.64;56.32;100070.22;5001989;28;20126;-66
2022/09/29 06:38:42;;;;;;;3.38;3.08;;;;;;;3.60;55.98;100066.84;5009957;28;20519;-67
2022/09/29 06:41:08;;;;;;;3.88;3.13;;;;;;;3.94;56.03;100079.81;5006689;28;20041;-66
2022/09/29 06:43:34;;;;;;;2.72;2.53;;;;;;;4.05;55.56;100076.09;5008980;28;20073;-65
2022/09/29 06:46:00;;;;;;;3.80;3.42;;;;;;;3.90;55.99;100078.19;5008046;28;20045;-72
2022/09/29 06:48:28;;;;;;;10.65;3.03;;;;;;;3.84;55.93;100080.91;5007496;28;20321;-68
2022/09/29 06:50:55;;;;;;;10.20;3.05;;;;;;;3.93;56.01;100072.94;5011232;28;20029;-68
2022/09/29 06:53:21;;;;;;;19.60;3.30;;;;;;;4.11;55.44;100078.53;5010809;28;20557;-68
2022/09/29 06:55:55;;;;;;;2.33;2.10;;;;;;;4.32;55.63;100079.69;5006812;28;20032;-68
2022/09/29 06:58:23;;;;;;;24.73;2.97;;;;;;;4.41;55.00;100082.06;5008119;28;20033;-68
2022/09/29 07:00:49;;;;;;;5.45;2.75;;;;;;;4.46;54.85;100090.53;5012002;28;20108;-67
2022/09/29 07:03:15;;;;;;;6.43;2.95;;;;;;;4.27;55.54;100092.75;5005884;28;20723;-68
2022/09/29 07:05:40;;;;;;;3.50;2.70;;;;;;;4.56;55.04;100093.72;5008616;28;20191;-68
2022/09/29 07:08:06;;;;;;;2.88;2.55;;;;;;;4.55;55.24;100099.78;5009849;28;20042;-68
2022/09/29 07:10:31;;;;;;;9.23;2.75;;;;;;;4.56;54.81;100083.34;5011176;28;20434;-68
2022/09/29 07:12:57;;;;;;;2.67;2.42;;;;;;;4.86;55.65;100091.19;5009995;28;20050;-67
2022/09/29 07:15:30;;;;;;;5.57;3.28;;;;;;;5.00;54.02;100083.88;5008644;28;20426;-68
2022/09/29 07:17:59;;;;;;;9.57;3.38;;;;;;;5.10;54.74;100093.09;5006600;28;20482;-68
2022/09/29 07:20:26;;;;;;;16.45;3.70;;;;;;;5.19;53.34;100095.41;5008979;28;20037;-69
2022/09/29 07:22:52;;;;;;;10.00;3.40;;;;;;;5.22;54.39;100094.44;5011848;28;20034;-68
2022/09/29 07:25:18;;;;;;;7.43;3.90;;;;;;;5.54;54.72;100097.78;5008950;28;20514;-68
2022/09/29 07:27:43;;;;;;;5.53;3.80;;;;;;;5.30;54.54;100101.97;5013785;28;20029;-68
2022/09/29 07:30:09;;;;;;;5.25;3.72;;;;;;;5.45;54.39;100098.91;5007093;28;20728;-69
2022/09/29 07:32:35;;;;;;;3.80;3.05;;;;;;;5.61;54.18;100102.75;5011266;28;20049;-68
2022/09/29 07:35:01;;;;;;;9.27;4.28;;;;;;;5.99;54.38;100095.44;5014280;28;20048;-68
2022/09/29 07:37:27;;;;;;;10.45;5.80;;;;;;;6.24;54.05;100097.25;5010630;28;20509;-68
2022/09/29 07:39:53;;;;;;;6.45;4.70;;;;;;;6.11;52.71;100090.78;5012726;28;20309;-68
2022/09/29 07:42:20;;;;;;;5.88;3.90;;;;;;;6.43;53.63;100100.06;5010638;28;20067;-67
2022/09/29 07:44:53;;;;;;;4.03;3.63;;;;;;;6.76;53.05;100100.59;5010173;28;20114;-67
2022/09/29 07:47:19;;;;;;;12.07;4.68;;;;;;;6.76;52.55;100100.59;5006551;28;20148;-69
2022/09/29 07:49:45;;;;;;;4.55;3.17;;;;;;;6.67;52.61;100100.94;5008292;28;20029;-69
2022/09/29 07:52:12;;;;;;;4.97;3.90;;;;;;;7.22;51.02;100098.91;5004384;28;20049;-66
2022/09/29 07:54:37;;;;;;;5.18;3.45;;;;;;;7.70;50.29;100100.50;5013381;28;20037;-68
2022/09/29 07:57:03;;;;;;;5.07;3.35;;;;;;;7.66;51.52;100104.13;5007478;28;20100;-68
2022/09/29 07:59:29;;;;;;;5.93;3.75;;;;;;;7.90;50.13;100119.66;5007953;28;20033;-68
2022/09/29 08:01:55;;;;;;;5.88;3.97;;;;;;;8.13;51.39;100121.31;5003922;28;20029;-68
2022/09/29 08:04:21;;;;;;;5.50;4.05;;;;;;;8.21;49.59;100121.84;5023772;28;20619;-69
2022/09/29 08:06:46;;;;;;;3.53;3.15;;;;;;;8.09;50.70;100123.19;5007589;28;20036;-67
2022/09/29 08:09:12;;;;;;;6.75;4.60;;;;;;;8.00;51.07;100127.91;5007689;28;20614;-67
2022/09/29 08:11:40;;;;;;;5.63;3.92;;;;;;;7.66;50.11;100135.34;5010209;28;20624;-67
2022/09/29 08:14:07;;;;;;;5.40;4.18;;;;;;;7.87;51.67;100132.78;5009530;28;20442;-67
2022/09/29 08:16:33;;;;;;;6.05;3.35;;;;;;;8.07;51.08;100135.44;5007614;28;20029;-70
2022/09/29 08:19:00;;;;;;;5.97;4.80;;;;;;;8.35;51.09;100140.31;5005875;28;20038;-66
2022/09/29 08:21:26;;;;;;;7.32;4.18;;;;;;;7.58;50.66;100137.41;5007399;28;20040;-66
2022/09/29 08:23:51;;;;;;;5.88;4.25;;;;;;;8.62;50.02;100144.41;5010628;28;20253;-65
2022/09/29 08:26:19;;;;;;;5.22;3.90;;;;;;;9.11;49.43;100144.88;5007864;28;20266;-66
2022/09/29 08:28:45;;;;;;;6.35;4.25;;;;;;;9.62;50.27;100151.19;5005212;28;20679;-67
2022/09/29 08:31:19;;;;;;;8.15;4.75;;;;;;;10.29;48.29;100143.63;5024867;28;20037;-67
2022/09/29 08:33:48;;;;;;;6.13;4.13;;;;;;;10.49;46.73;100147.84;5010782;28;20042;-67
2022/09/29 08:36:15;;;;;;;8.00;6.20;;;;;;;11.07;47.12;100151.81;5012367;28;20077;-67
2022/09/29 08:38:50;;;;;;;6.28;5.47;;;;;;;10.07;45.85;100156.91;5008520;28;20115;-65
2022/09/29 08:41:44;;;;;;;7.82;4.05;;;;;;;10.14;47.88;100159.13;5008979;28;20120;-70
2022/09/29 08:44:21;;;;;;;6.05;4.43;;;;;;;9.98;47.26;100166.03;5006999;28;20103;-67
2022/09/29 08:46:51;;;;;;;6.78;3.83;;;;;;;9.76;47.71;100163.56;5008753;28;20048;-67
2022/09/29 08:49:27;;;;;;;5.50;3.95;;;;;;;9.99;47.12;100170.31;5021219;28;20230;-66
2022/09/29 08:52:01;;;;;;;5.45;3.97;;;;;;;9.54;48.27;100171.56;5009479;28;20029;-67
2022/09/29 08:54:33;;;;;;;5.88;4.03;;;;;;;9.88;48.38;100160.41;5009864;28;20084;-67
2022/09/29 08:57:00;;;;;;;6.85;5.07;;;;;;;9.88;50.09;100165.63;5012463;28;20041;-67
2022/09/29 08:59:28;;;;;;;3.97;3.58;;;;;;;9.56;49.03;100178.41;5008906;28;20085;-67
2022/09/29 09:02:32;;;;;;;7.55;4.90;;;;;;;10.54;50.11;100172.78;5013035;28;20364;-68
2022/09/29 09:05:19;;;;;;;5.50;4.18;;;;;;;10.05;47.75;100174.41;5004669;28;20053;-66
2022/09/29 09:07:44;;;;;;;5.45;4.03;;;;;;;10.59;47.56;100170.81;5007711;28;20044;-67
2022/09/29 09:10:12;;;;;;;5.35;3.85;;;;;;;10.69;50.09;100172.94;5008599;28;20041;-66
2022/09/29 09:12:56;;;;;;;4.65;4.13;;;;;;;11.71;48.13;100170.97;5007802;28;20045;-68
2022/09/29 09:15:53;;;;;;;4.80;4.03;;;;;;;12.33;46.36;100163.94;5009408;28;20049;-68
2022/09/29 09:18:21;;;;;;;7.28;4.53;;;;;;;12.47;44.88;100171.03;5005825;28;20037;-66
2022/09/29 09:21:05;;;;;;;4.43;4.03;;;;;;;12.06;44.83;100171.63;5014347;28;20040;-67
2022/09/29 09:23:41;;;;;;;6.72;4.50;;;;;;;12.59;46.17;100170.28;5006560;28;20062;-67
2022/09/29 09:26:09;;;;;;;4.90;3.92;;;;;;;12.00;44.74;100171.97;5012925;28;20033;-67
2022/09/29 09:28:49;;;;;;;4.35;3.10;;;;;;;11.66;46.16;100168.63;5005194;28;20088;-67
2022/09/29 09:31:22;;;;;;;5.25;3.53;;;;;;;12.26;45.91;100171.31;5009024;28;20742;-67
2022/09/29 09:33:55;;;;;;;5.13;3.92;;;;;;;12.29;45.77;100172.94;5006922;28;20510;-66
2022/09/29 09:36:33;;;;;;;5.97;3.88;;;;;;;12.36;46.05;100173.44;5006415;28;20045;-67
2022/09/29 09:39:12;;;;;;;6.07;4.60;;;;;;;13.33;43.53;100166.63;5004482;28;20053;-67
2022/09/29 09:41:40;;;;;;;6.65;5.25;;;;;;;13.78;44.85;100176.13;5010880;28;20037;-65
2022/09/29 09:44:15;;;;;;;6.07;4.22;;;;;;;14.36;42.29;100167.84;5009057;28;20056;-67
2022/09/29 09:46:55;;;;;;;5.60;3.70;;;;;;;14.71;42.08;100169.91;5027844;28;20311;-67
2022/09/29 09:49:44;;;;;;;4.82;4.15;;;;;;;13.33;42.93;100176.28;5008972;28;20123;-67
2022/09/29 09:52:30;;;;;;;7.47;4.82;;;;;;;13.60;43.37;100178.97;5008279;28;20427;-67
2022/09/29 09:55:00;;;;;;;6.05;4.07;;;;;;;13.29;44.29;100175.66;5007165;28;20483;-68
2022/09/29 09:57:37;;;;;;;5.13;3.92;;;;;;;13.36;44.15;100175.25;5009854;28;20096;-67
2022/09/29 10:00:15;;;;;;;7.97;4.80;;;;;;;13.52;44.19;100184.69;5008768;28;20051;-68
2022/09/29 10:02:45;;;;;;;6.57;4.85;;;;;;;13.33;44.85;100181.53;5027727;28;20132;-67
2022/09/29 10:05:14;;;;;;;10.02;5.00;;;;;;;13.17;44.08;100183.44;5028397;28;20034;-68
2022/09/29 10:07:39;;;;;;;8.57;5.25;;;;;;;12.42;44.75;100183.53;5010396;28;20108;-69
2022/09/29 10:10:14;;;;;;;6.40;5.07;;;;;;;12.53;46.39;100182.91;5009357;28;20041;-67
2022/09/29 10:12:40;;;;;;;4.50;4.03;;;;;;;12.30;45.84;100190.34;5027451;28;20704;-68
2022/09/29 10:15:17;;;;;;;7.38;4.57;;;;;;;13.01;46.58;100192.25;5006724;28;20042;-67
2022/09/29 10:17:49;;;;;;;5.93;4.20;;;;;;;13.41;44.03;100202.06;5008795;28;20037;-66
2022/09/29 10:20:31;;;;;;;5.10;3.67;;;;;;;13.68;44.54;100196.88;5013294;28;20108;-67
2022/09/29 10:23:16;;;;;;;7.32;4.10;;;;;;;13.04;46.02;100206.97;5007271;28;20525;-67
2022/09/29 10:25:51;;;;;;;12.13;5.05;;;;;;;12.96;45.34;100199.56;5008887;28;20029;-67
2022/09/29 10:28:17;;;;;;;7.78;3.65;;;;;;;13.09;46.05;100204.88;5007540;28;20041;-66
2022/09/29 10:30:43;;;;;;;3.92;3.03;;;;;;;13.42;45.28;100201.13;5008857;28;20068;-67
2022/09/29 10:33:16;;;;;;;6.22;3.50;;;;;;;13.20;45.65;100212.09;4996247;28;20049;-67
2022/09/29 10:35:43;;;;;;;4.22;3.03;;;;;;;13.28;45.35;100204.63;5016101;28;20542;-67
2022/09/29 10:38:24;;;;;;;5.95;3.55;;;;;;;13.38;45.84;100213.59;5010962;28;20034;-67
2022/09/29 10:41:06;;;;;;;5.22;3.35;;;;;;;13.06;45.27;100211.16;5013536;28;20060;-67
2022/09/29 10:43:36;;;;;;;4.90;3.60;;;;;;;13.27;45.17;100218.66;5009173;28;20037;-68
2022/09/29 10:46:03;;;;;;;8.02;4.10;;;;;;;12.87;46.03;100210.59;5013153;28;20045;-67
2022/09/29 10:48:28;;;;;;;5.88;3.80;;;;;;;12.64;46.52;100214.56;5008193;28;20048;-67
2022/09/29 10:50:59;;;;;;;5.85;3.30;;;;;;;12.43;45.59;100219.31;5008180;28;20041;-68
2022/09/29 10:53:35;;;;;;;4.47;3.20;;;;;;;11.74;47.49;100212.72;5002549;28;20513;-67
2022/09/29 10:56:13;;;;;;;4.82;2.97;;;;;;;11.93;47.71;100221.25;5003937;28;20585;-66
2022/09/29 10:58:41;;;;;;;7.63;4.30;;;;;;;12.24;46.93;100220.34;5010464;28;20041;-66
2022/09/29 11:01:13;;;;;;;6.93;3.80;;;;;;;12.85;45.52;100220.34;5005974;28;20060;-67
2022/09/29 11:03:51;;;;;;;5.22;3.45;;;;;;;13.00;45.09;100218.56;5004694;28;20036;-67
2022/09/29 11:06:26;;;;;;;3.88;3.40;;;;;;;13.18;45.07;100216.59;5009601;28;20133;-67
2022/09/29 11:09:25;;;;;;;7.82;3.60;;;;;;;12.69;45.01;100226.50;5005594;28;20037;-67
2022/09/29 11:11:56;;;;;;;4.57;3.97;;;;;;;12.13;47.02;100217.50;5007636;28;20037;-67
2022/09/29 11:14:39;;;;;;;;;;;;;;;12.87;46.95;100218.47;5005371;28;20029;-68
2022/09/29 11:17:22;;;;;;;6.68;3.97;;;;;;;13.66;45.35;100222.41;5001754;28;19928;-68
2022/09/29 11:19:53;;;;;;;4.85;3.92;;;;;;;13.65;45.07;100229.44;5027879;28;20091;-70
2022/09/29 11:22:49;;;;;;;7.68;5.45;;;;;;;13.85;43.56;100235.19;5008967;28;20070;-67
2022/09/29 11:25:36;;;;;;;8.77;5.18;;;;;;;13.72;45.36;100227.28;5004234;28;20053;-68
2022/09/29 11:28:26;;;;;;;4.10;3.67;;;;;;;14.31;43.85;100230.41;5005053;28;20042;-68
2022/09/29 11:31:27;;;;;;;6.07;3.97;;;;;;;14.54;44.45;100235.97;5025615;28;20037;-68
2022/09/29 11:34:12;;;;;;;6.38;4.35;;;;;;;14.38;43.33;100236.13;4976296;28;20049;-67
2022/09/29 11:36:44;;;;;;;5.03;4.22;;;;;;;14.40;43.12;100233.41;4994293;28;20605;-68
2022/09/29 11:39:18;;;;;;;4.75;3.88;;;;;;;14.44;42.19;100237.53;5007596;28;20102;-67
2022/09/29 11:42:17;;;;;;;8.60;7.70;;;;;;;14.84;42.89;100233.06;5007875;28;20044;-71
2022/09/29 11:44:59;;;;;;;3.67;3.35;;;;;;;14.63;42.11;100235.34;5006020;28;20022;-68
2022/09/29 11:47:50;;;;;;;3.53;3.22;;;;;;;14.26;44.19;100235.16;5006246;28;20038;-69
2022/09/29 11:50:21;;;;;;;4.32;3.92;;;;;;;14.35;43.04;100242.41;5005456;28;20052;-68
2022/09/29 11:53:10;;;;;;;4.28;3.08;;;;;;;13.77;43.82;100269.00;5006409;28;20044;-68
2022/09/29 11:56:33;;;;;;;0.65;0.20;;;;;;;12.61;43.00;100257.53;5012467;28;20150;-69